sensor_id;sensor_type;location;lat;lon;timestamp;temperature;humidity
13482;DHT22;6813;60.352;15.746;2023-04-25T00:02:11;3.20;99.90
13482;DHT22;6813;60.352;15.746;2023-04-25T00:04:37;3.00;99.90
13482;DHT22;6813;60.352;15.746;2023-04-25T00:07:03;2.90;99.90
13482;DHT22;6813;60.352;15.746;2023-04-25T00:09:29;2.90;99.90
13482;DHT22;6813;60.352;15.746;2023-04-25T00:11:55;2.90;99.90
13482;DHT22;6813;60.352;15.746;2023-04-25T00:14:21;2.90;99.90
13482;DHT22;6813;60.352;15.746;2023-04-25T00:16:48;3.00;99.90
13482;DHT22;6813;60.352;15.746;2023-04-25T00:19:14;2.90;99.90
13482;DHT22;6813;60.352;15.746;2023-04-25T00:21:39;2.90;99.90
13482;DHT22;6813;60.352;15.746;2023-04-25T00:24:08;3.00;99.90
13482;DHT22;6813;60.352;15.746;2023-04-25T00:26:35;3.00;99.90
13482;DHT22;6813;60.352;15.746;2023-04-25T00:29:01;3.00;99.90
13482;DHT22;6813;60.352;15.746;2023-04-25T00:31:27;3.10;99.90
13482;DHT22;6813;60.352;15.746;2023-04-25T00:33:54;3.10;99.90
13482;DHT22;6813;60.352;15.746;2023-04-25T00:36:20;3.20;99.90
13482;DHT22;6813;60.352;15.746;2023-04-25T00:38:46;3.20;99.90
13482;DHT22;6813;60.352;15.746;2023-04-25T00:41:12;3.20;99.90
13482;DHT22;6813;60.352;15.746;2023-04-25T00:43:37;3.20;99.90
13482;DHT22;6813;60.352;15.746;2023-04-25T00:46:04;3.10;99.90
13482;DHT22;6813;60.352;15.746;2023-04-25T00:48:30;3.10;99.90
13482;DHT22;6813;60.352;15.746;2023-04-25T00:50:58;3.10;99.90
13482;DHT22;6813;60.352;15.746;2023-04-25T00:53:25;3.00;99.90
13482;DHT22;6813;60.352;15.746;2023-04-25T00:55:51;3.10;99.90
13482;DHT22;6813;60.352;15.746;2023-04-25T00:58:18;3.10;99.90
13482;DHT22;6813;60.352;15.746;2023-04-25T01:00:45;3.20;99.90
13482;DHT22;6813;60.352;15.746;2023-04-25T01:03:15;3.20;99.90
13482;DHT22;6813;60.352;15.746;2023-04-25T01:05:45;3.20;99.90
13482;DHT22;6813;60.352;15.746;2023-04-25T01:08:13;3.20;99.90
13482;DHT22;6813;60.352;15.746;2023-04-25T01:10:39;3.30;99.90
13482;DHT22;6813;60.352;15.746;2023-04-25T01:13:05;3.20;99.90
13482;DHT22;6813;60.352;15.746;2023-04-25T01:15:30;3.20;99.90
13482;DHT22;6813;60.352;15.746;2023-04-25T01:17:57;3.20;99.90
13482;DHT22;6813;60.352;15.746;2023-04-25T01:20:24;3.20;99.90
13482;DHT22;6813;60.352;15.746;2023-04-25T01:22:53;3.30;99.90
13482;DHT22;6813;60.352;15.746;2023-04-25T01:25:21;3.30;99.90
13482;DHT22;6813;60.352;15.746;2023-04-25T01:27:47;3.20;99.90
13482;DHT22;6813;60.352;15.746;2023-04-25T01:30:14;3.20;99.90
13482;DHT22;6813;60.352;15.746;2023-04-25T01:32:41;3.30;99.90
13482;DHT22;6813;60.352;15.746;2023-04-25T01:35:11;3.20;99.90
13482;DHT22;6813;60.352;15.746;2023-04-25T01:37:42;3.20;99.90
13482;DHT22;6813;60.352;15.746;2023-04-25T01:40:09;3.10;99.90
13482;DHT22;6813;60.352;15.746;2023-04-25T01:42:37;3.10;99.90
13482;DHT22;6813;60.352;15.746;2023-04-25T01:45:03;3.00;99.90
13482;DHT22;6813;60.352;15.746;2023-04-25T01:47:29;3.00;99.90
13482;DHT22;6813;60.352;15.746;2023-04-25T01:49:55;3.00;99.90
13482;DHT22;6813;60.352;15.746;2023-04-25T01:52:21;3.10;99.90
13482;DHT22;6813;60.352;15.746;2023-04-25T01:54:47;3.10;99.90
13482;DHT22;6813;60.352;15.746;2023-04-25T01:57:14;3.10;99.90
13482;DHT22;6813;60.352;15.746;2023-04-25T01:59:41;3.20;99.90
13482;DHT22;6813;60.352;15.746;2023-04-25T02:02:07;3.20;99.90
13482;DHT22;6813;60.352;15.746;2023-04-25T02:04:33;3.20;99.90
13482;DHT22;6813;60.352;15.746;2023-04-25T02:06:59;3.20;99.90
13482;DHT22;6813;60.352;15.746;2023-04-25T02:09:24;3.10;99.90
13482;DHT22;6813;60.352;15.746;2023-04-25T02:11:50;3.10;99.90
13482;DHT22;6813;60.352;15.746;2023-04-25T02:14:16;3.10;99.90
13482;DHT22;6813;60.352;15.746;2023-04-25T02:16:42;3.10;99.90
13482;DHT22;6813;60.352;15.746;2023-04-25T02:19:09;3.20;99.90
13482;DHT22;6813;60.352;15.746;2023-04-25T02:21:35;3.20;99.90
13482;DHT22;6813;60.352;15.746;2023-04-25T02:24:02;3.20;99.90
13482;DHT22;6813;60.352;15.746;2023-04-25T02:26:28;3.30;99.90
13482;DHT22;6813;60.352;15.746;2023-04-25T02:28:53;3.20;99.90
13482;DHT22;6813;60.352;15.746;2023-04-25T02:31:20;3.20;99.90
13482;DHT22;6813;60.352;15.746;2023-04-25T02:33:46;3.20;99.90
13482;DHT22;6813;60.352;15.746;2023-04-25T02:36:12;3.10;99.90
13482;DHT22;6813;60.352;15.746;2023-04-25T02:38:38;3.10;99.90
13482;DHT22;6813;60.352;15.746;2023-04-25T02:41:03;3.10;99.90
13482;DHT22;6813;60.352;15.746;2023-04-25T02:43:29;3.10;99.90
13482;DHT22;6813;60.352;15.746;2023-04-25T02:45:55;3.20;99.90
13482;DHT22;6813;60.352;15.746;2023-04-25T02:48:20;3.20;99.90
13482;DHT22;6813;60.352;15.746;2023-04-25T02:50:46;3.20;99.90
13482;DHT22;6813;60.352;15.746;2023-04-25T02:53:12;3.20;99.90
13482;DHT22;6813;60.352;15.746;2023-04-25T02:55:37;3.20;99.90
13482;DHT22;6813;60.352;15.746;2023-04-25T02:58:03;3.20;99.90
13482;DHT22;6813;60.352;15.746;2023-04-25T03:00:29;3.20;99.90
13482;DHT22;6813;60.352;15.746;2023-04-25T03:02:55;3.20;99.90
13482;DHT22;6813;60.352;15.746;2023-04-25T03:05:21;3.10;99.90
13482;DHT22;6813;60.352;15.746;2023-04-25T03:07:46;3.10;99.90
13482;DHT22;6813;60.352;15.746;2023-04-25T03:10:12;3.00;99.90
13482;DHT22;6813;60.352;15.746;2023-04-25T03:12:38;3.10;99.90
13482;DHT22;6813;60.352;15.746;2023-04-25T03:15:04;3.20;99.90
13482;DHT22;6813;60.352;15.746;2023-04-25T03:17:30;3.20;99.90
13482;DHT22;6813;60.352;15.746;2023-04-25T03:19:57;3.20;99.90
13482;DHT22;6813;60.352;15.746;2023-04-25T03:22:23;3.20;99.90
13482;DHT22;6813;60.352;15.746;2023-04-25T03:24:50;3.20;99.90
13482;DHT22;6813;60.352;15.746;2023-04-25T03:27:16;3.20;99.90
13482;DHT22;6813;60.352;15.746;2023-04-25T03:29:42;3.30;99.90
13482;DHT22;6813;60.352;15.746;2023-04-25T03:32:08;3.20;99.90
13482;DHT22;6813;60.352;15.746;2023-04-25T03:34:33;3.10;99.90
13482;DHT22;6813;60.352;15.746;2023-04-25T03:36:59;3.10;99.90
13482;DHT22;6813;60.352;15.746;2023-04-25T03:39:25;3.10;99.90
13482;DHT22;6813;60.352;15.746;2023-04-25T03:41:51;3.10;99.90
13482;DHT22;6813;60.352;15.746;2023-04-25T03:44:17;3.00;99.90
13482;DHT22;6813;60.352;15.746;2023-04-25T03:46:42;3.00;99.90
13482;DHT22;6813;60.352;15.746;2023-04-25T03:49:08;3.00;99.90
13482;DHT22;6813;60.352;15.746;2023-04-25T03:51:34;3.00;99.90
13482;DHT22;6813;60.352;15.746;2023-04-25T03:54:00;3.00;99.90
13482;DHT22;6813;60.352;15.746;2023-04-25T03:56:25;3.10;99.90
13482;DHT22;6813;60.352;15.746;2023-04-25T03:58:51;3.00;99.90
13482;DHT22;6813;60.352;15.746;2023-04-25T04:01:17;3.10;99.90
13482;DHT22;6813;60.352;15.746;2023-04-25T04:03:42;3.10;99.90
13482;DHT22;6813;60.352;15.746;2023-04-25T04:06:08;3.10;99.90
13482;DHT22;6813;60.352;15.746;2023-04-25T04:08:34;3.20;99.90
13482;DHT22;6813;60.352;15.746;2023-04-25T04:11:00;3.30;99.90
13482;DHT22;6813;60.352;15.746;2023-04-25T04:13:27;3.30;99.90
13482;DHT22;6813;60.352;15.746;2023-04-25T04:15:53;3.30;99.90
13482;DHT22;6813;60.352;15.746;2023-04-25T04:18:19;3.40;99.90
13482;DHT22;6813;60.352;15.746;2023-04-25T04:20:45;3.40;99.90
13482;DHT22;6813;60.352;15.746;2023-04-25T04:23:11;3.40;99.90
13482;DHT22;6813;60.352;15.746;2023-04-25T04:25:37;3.40;99.90
13482;DHT22;6813;60.352;15.746;2023-04-25T04:28:02;3.40;99.90
13482;DHT22;6813;60.352;15.746;2023-04-25T04:30:28;3.50;99.90
13482;DHT22;6813;60.352;15.746;2023-04-25T04:32:58;3.50;99.90
13482;DHT22;6813;60.352;15.746;2023-04-25T04:35:26;3.50;99.90
13482;DHT22;6813;60.352;15.746;2023-04-25T04:37:52;3.40;99.90
13482;DHT22;6813;60.352;15.746;2023-04-25T04:40:18;3.50;99.90
13482;DHT22;6813;60.352;15.746;2023-04-25T04:42:45;3.50;99.90
13482;DHT22;6813;60.352;15.746;2023-04-25T04:45:11;3.50;99.90
13482;DHT22;6813;60.352;15.746;2023-04-25T04:47:38;3.50;99.90
13482;DHT22;6813;60.352;15.746;2023-04-25T04:50:17;3.50;99.90
13482;DHT22;6813;60.352;15.746;2023-04-25T04:52:46;3.50;99.90
13482;DHT22;6813;60.352;15.746;2023-04-25T04:55:12;3.50;99.90
13482;DHT22;6813;60.352;15.746;2023-04-25T04:57:38;3.50;99.90
13482;DHT22;6813;60.352;15.746;2023-04-25T05:00:06;3.50;99.90
13482;DHT22;6813;60.352;15.746;2023-04-25T05:02:37;3.50;99.90
13482;DHT22;6813;60.352;15.746;2023-04-25T05:05:04;3.50;99.90
13482;DHT22;6813;60.352;15.746;2023-04-25T05:07:30;3.50;99.90
13482;DHT22;6813;60.352;15.746;2023-04-25T05:09:56;3.50;99.90
13482;DHT22;6813;60.352;15.746;2023-04-25T05:12:21;3.50;99.90
13482;DHT22;6813;60.352;15.746;2023-04-25T05:14:47;3.50;99.90
13482;DHT22;6813;60.352;15.746;2023-04-25T05:17:13;3.50;99.90
13482;DHT22;6813;60.352;15.746;2023-04-25T05:19:39;3.40;99.90
13482;DHT22;6813;60.352;15.746;2023-04-25T05:22:05;3.50;99.90
13482;DHT22;6813;60.352;15.746;2023-04-25T05:24:30;3.50;99.90
13482;DHT22;6813;60.352;15.746;2023-04-25T05:26:56;3.50;99.90
13482;DHT22;6813;60.352;15.746;2023-04-25T05:29:22;3.60;99.90
13482;DHT22;6813;60.352;15.746;2023-04-25T05:31:48;3.60;99.90
13482;DHT22;6813;60.352;15.746;2023-04-25T05:34:14;3.60;99.90
13482;DHT22;6813;60.352;15.746;2023-04-25T05:36:40;3.70;99.90
13482;DHT22;6813;60.352;15.746;2023-04-25T05:39:06;3.70;99.90
13482;DHT22;6813;60.352;15.746;2023-04-25T05:41:32;3.70;99.90
13482;DHT22;6813;60.352;15.746;2023-04-25T05:43:57;3.70;99.90
13482;DHT22;6813;60.352;15.746;2023-04-25T05:46:23;3.80;99.90
13482;DHT22;6813;60.352;15.746;2023-04-25T05:48:49;3.80;99.90
13482;DHT22;6813;60.352;15.746;2023-04-25T05:51:14;3.80;99.90
13482;DHT22;6813;60.352;15.746;2023-04-25T05:53:41;3.80;99.90
13482;DHT22;6813;60.352;15.746;2023-04-25T05:56:07;3.80;99.90
13482;DHT22;6813;60.352;15.746;2023-04-25T05:58:33;3.80;99.90
13482;DHT22;6813;60.352;15.746;2023-04-25T06:00:59;3.80;99.90
13482;DHT22;6813;60.352;15.746;2023-04-25T06:03:24;3.80;99.90
13482;DHT22;6813;60.352;15.746;2023-04-25T06:05:50;3.80;99.90
13482;DHT22;6813;60.352;15.746;2023-04-25T06:08:16;3.80;99.90
13482;DHT22;6813;60.352;15.746;2023-04-25T06:10:42;3.80;99.90
13482;DHT22;6813;60.352;15.746;2023-04-25T06:13:07;3.90;99.90
13482;DHT22;6813;60.352;15.746;2023-04-25T06:15:33;3.90;99.90
13482;DHT22;6813;60.352;15.746;2023-04-25T06:17:59;3.90;99.90
13482;DHT22;6813;60.352;15.746;2023-04-25T06:20:25;4.00;99.90
13482;DHT22;6813;60.352;15.746;2023-04-25T06:22:51;4.10;99.90
13482;DHT22;6813;60.352;15.746;2023-04-25T06:25:17;4.10;99.90
13482;DHT22;6813;60.352;15.746;2023-04-25T06:27:43;4.10;99.90
13482;DHT22;6813;60.352;15.746;2023-04-25T06:30:09;4.10;99.90
13482;DHT22;6813;60.352;15.746;2023-04-25T06:32:36;4.20;99.90
13482;DHT22;6813;60.352;15.746;2023-04-25T06:35:02;4.20;99.90
13482;DHT22;6813;60.352;15.746;2023-04-25T06:37:29;4.20;99.90
13482;DHT22;6813;60.352;15.746;2023-04-25T06:39:54;4.10;99.90
13482;DHT22;6813;60.352;15.746;2023-04-25T06:42:20;4.10;99.90
13482;DHT22;6813;60.352;15.746;2023-04-25T06:44:46;4.10;99.90
13482;DHT22;6813;60.352;15.746;2023-04-25T06:47:11;4.10;99.90
13482;DHT22;6813;60.352;15.746;2023-04-25T06:49:37;4.10;99.90
13482;DHT22;6813;60.352;15.746;2023-04-25T06:52:03;4.10;99.90
13482;DHT22;6813;60.352;15.746;2023-04-25T06:54:29;4.20;99.90
13482;DHT22;6813;60.352;15.746;2023-04-25T06:56:56;4.20;99.90
13482;DHT22;6813;60.352;15.746;2023-04-25T06:59:22;4.30;99.90
13482;DHT22;6813;60.352;15.746;2023-04-25T07:01:48;4.30;99.90
13482;DHT22;6813;60.352;15.746;2023-04-25T07:04:13;4.30;99.90
13482;DHT22;6813;60.352;15.746;2023-04-25T07:06:39;4.30;99.90
13482;DHT22;6813;60.352;15.746;2023-04-25T07:09:11;4.30;99.90
13482;DHT22;6813;60.352;15.746;2023-04-25T07:11:37;4.20;99.90
13482;DHT22;6813;60.352;15.746;2023-04-25T07:14:03;4.20;99.90
13482;DHT22;6813;60.352;15.746;2023-04-25T07:16:29;4.20;99.90
13482;DHT22;6813;60.352;15.746;2023-04-25T07:18:55;4.20;99.90
13482;DHT22;6813;60.352;15.746;2023-04-25T07:21:21;4.30;99.90
13482;DHT22;6813;60.352;15.746;2023-04-25T07:23:46;4.30;99.90
13482;DHT22;6813;60.352;15.746;2023-04-25T07:26:12;4.30;99.90
13482;DHT22;6813;60.352;15.746;2023-04-25T07:28:38;4.30;99.90
13482;DHT22;6813;60.352;15.746;2023-04-25T07:31:04;4.40;99.90
13482;DHT22;6813;60.352;15.746;2023-04-25T07:33:30;4.40;99.90
13482;DHT22;6813;60.352;15.746;2023-04-25T07:35:56;4.50;99.90
13482;DHT22;6813;60.352;15.746;2023-04-25T07:38:22;4.40;99.90
13482;DHT22;6813;60.352;15.746;2023-04-25T07:40:48;4.40;99.90
13482;DHT22;6813;60.352;15.746;2023-04-25T07:43:14;4.50;99.90
13482;DHT22;6813;60.352;15.746;2023-04-25T07:45:42;4.60;99.90
13482;DHT22;6813;60.352;15.746;2023-04-25T07:48:08;4.60;99.90
13482;DHT22;6813;60.352;15.746;2023-04-25T07:50:34;4.60;99.90
13482;DHT22;6813;60.352;15.746;2023-04-25T07:53:00;4.50;99.90
13482;DHT22;6813;60.352;15.746;2023-04-25T07:55:25;4.50;99.90
13482;DHT22;6813;60.352;15.746;2023-04-25T07:57:51;4.50;99.90
13482;DHT22;6813;60.352;15.746;2023-04-25T08:00:17;4.60;99.90
13482;DHT22;6813;60.352;15.746;2023-04-25T08:02:43;4.70;99.90
13482;DHT22;6813;60.352;15.746;2023-04-25T08:05:09;4.80;99.90
13482;DHT22;6813;60.352;15.746;2023-04-25T08:07:37;4.80;99.90
13482;DHT22;6813;60.352;15.746;2023-04-25T08:10:05;4.80;99.90
13482;DHT22;6813;60.352;15.746;2023-04-25T08:12:31;4.80;99.90
13482;DHT22;6813;60.352;15.746;2023-04-25T08:14:57;4.80;99.90
13482;DHT22;6813;60.352;15.746;2023-04-25T08:17:22;4.80;99.90
13482;DHT22;6813;60.352;15.746;2023-04-25T08:19:48;4.90;99.90
13482;DHT22;6813;60.352;15.746;2023-04-25T08:22:14;4.90;99.90
13482;DHT22;6813;60.352;15.746;2023-04-25T08:24:41;4.90;99.90
13482;DHT22;6813;60.352;15.746;2023-04-25T08:27:07;5.00;99.90
13482;DHT22;6813;60.352;15.746;2023-04-25T08:29:33;5.10;99.90
13482;DHT22;6813;60.352;15.746;2023-04-25T08:32:00;5.10;99.90
13482;DHT22;6813;60.352;15.746;2023-04-25T08:34:26;5.20;99.90
13482;DHT22;6813;60.352;15.746;2023-04-25T08:36:52;5.30;99.90
13482;DHT22;6813;60.352;15.746;2023-04-25T08:39:17;5.40;99.90
13482;DHT22;6813;60.352;15.746;2023-04-25T08:41:44;5.50;99.90
13482;DHT22;6813;60.352;15.746;2023-04-25T08:44:10;5.50;99.90
13482;DHT22;6813;60.352;15.746;2023-04-25T08:46:38;5.60;99.90
13482;DHT22;6813;60.352;15.746;2023-04-25T08:49:06;5.50;99.90
13482;DHT22;6813;60.352;15.746;2023-04-25T08:51:32;5.60;99.90
13482;DHT22;6813;60.352;15.746;2023-04-25T08:54:11;5.60;99.90
13482;DHT22;6813;60.352;15.746;2023-04-25T08:56:47;5.50;99.90
13482;DHT22;6813;60.352;15.746;2023-04-25T08:59:13;5.40;99.90
13482;DHT22;6813;60.352;15.746;2023-04-25T09:01:39;5.40;99.90
13482;DHT22;6813;60.352;15.746;2023-04-25T09:04:05;5.40;99.90
13482;DHT22;6813;60.352;15.746;2023-04-25T09:06:32;5.30;99.90
13482;DHT22;6813;60.352;15.746;2023-04-25T09:09:07;5.30;99.90
13482;DHT22;6813;60.352;15.746;2023-04-25T09:11:34;5.20;99.90
13482;DHT22;6813;60.352;15.746;2023-04-25T09:14:19;5.20;99.90
13482;DHT22;6813;60.352;15.746;2023-04-25T09:19:23;5.00;99.90
13482;DHT22;6813;60.352;15.746;2023-04-25T09:21:49;4.90;99.90
13482;DHT22;6813;60.352;15.746;2023-04-25T09:24:15;5.00;99.90
13482;DHT22;6813;60.352;15.746;2023-04-25T09:26:41;5.10;99.90
13482;DHT22;6813;60.352;15.746;2023-04-25T09:29:07;5.20;99.90
13482;DHT22;6813;60.352;15.746;2023-04-25T09:31:33;5.40;99.90
13482;DHT22;6813;60.352;15.746;2023-04-25T09:34:00;5.50;99.90
13482;DHT22;6813;60.352;15.746;2023-04-25T09:36:30;5.50;99.90
13482;DHT22;6813;60.352;15.746;2023-04-25T09:38:56;5.30;99.90
13482;DHT22;6813;60.352;15.746;2023-04-25T09:41:25;5.40;99.90
13482;DHT22;6813;60.352;15.746;2023-04-25T09:43:51;5.50;99.90
13482;DHT22;6813;60.352;15.746;2023-04-25T09:46:17;5.60;99.90
13482;DHT22;6813;60.352;15.746;2023-04-25T09:48:50;5.60;99.90
13482;DHT22;6813;60.352;15.746;2023-04-25T09:51:16;5.60;99.90
13482;DHT22;6813;60.352;15.746;2023-04-25T09:53:46;5.70;99.90
13482;DHT22;6813;60.352;15.746;2023-04-25T09:56:12;5.70;99.90
13482;DHT22;6813;60.352;15.746;2023-04-25T09:58:40;5.70;99.90
13482;DHT22;6813;60.352;15.746;2023-04-25T10:01:07;5.80;99.90
13482;DHT22;6813;60.352;15.746;2023-04-25T10:03:35;5.80;99.90
13482;DHT22;6813;60.352;15.746;2023-04-25T10:06:12;5.80;99.90
13482;DHT22;6813;60.352;15.746;2023-04-25T10:08:38;5.80;99.90
13482;DHT22;6813;60.352;15.746;2023-04-25T10:11:07;5.60;99.90
13482;DHT22;6813;60.352;15.746;2023-04-25T10:13:34;5.60;99.90
13482;DHT22;6813;60.352;15.746;2023-04-25T10:16:02;5.70;99.90
13482;DHT22;6813;60.352;15.746;2023-04-25T10:18:29;5.70;99.90
13482;DHT22;6813;60.352;15.746;2023-04-25T10:21:01;5.80;99.90
13482;DHT22;6813;60.352;15.746;2023-04-25T10:23:27;5.90;99.90
13482;DHT22;6813;60.352;15.746;2023-04-25T10:25:55;5.90;99.90
13482;DHT22;6813;60.352;15.746;2023-04-25T10:28:21;6.00;99.90
13482;DHT22;6813;60.352;15.746;2023-04-25T10:31:08;6.00;99.90
13482;DHT22;6813;60.352;15.746;2023-04-25T10:33:38;6.10;99.90
13482;DHT22;6813;60.352;15.746;2023-04-25T10:36:14;6.10;99.90
13482;DHT22;6813;60.352;15.746;2023-04-25T10:38:43;6.10;99.90
13482;DHT22;6813;60.352;15.746;2023-04-25T10:41:10;6.20;99.90
13482;DHT22;6813;60.352;15.746;2023-04-25T10:43:43;6.20;99.90
13482;DHT22;6813;60.352;15.746;2023-04-25T10:46:22;6.30;99.90
13482;DHT22;6813;60.352;15.746;2023-04-25T10:48:56;6.40;99.90
13482;DHT22;6813;60.352;15.746;2023-04-25T10:51:29;6.50;99.90
13482;DHT22;6813;60.352;15.746;2023-04-25T10:54:05;6.50;99.90
13482;DHT22;6813;60.352;15.746;2023-04-25T10:56:33;6.50;99.90
13482;DHT22;6813;60.352;15.746;2023-04-25T10:59:14;6.50;99.90
13482;DHT22;6813;60.352;15.746;2023-04-25T11:01:47;6.50;99.90
13482;DHT22;6813;60.352;15.746;2023-04-25T11:04:24;6.40;99.90
13482;DHT22;6813;60.352;15.746;2023-04-25T11:09:40;6.40;99.90
13482;DHT22;6813;60.352;15.746;2023-04-25T11:12:08;6.30;99.90
13482;DHT22;6813;60.352;15.746;2023-04-25T11:14:35;6.30;99.90
13482;DHT22;6813;60.352;15.746;2023-04-25T11:17:00;6.30;99.90
13482;DHT22;6813;60.352;15.746;2023-04-25T11:19:28;6.30;99.90
13482;DHT22;6813;60.352;15.746;2023-04-25T11:21:58;6.30;99.90
13482;DHT22;6813;60.352;15.746;2023-04-25T11:24:29;6.20;99.90
13482;DHT22;6813;60.352;15.746;2023-04-25T11:26:55;6.20;99.90
13482;DHT22;6813;60.352;15.746;2023-04-25T11:29:32;6.10;99.90
13482;DHT22;6813;60.352;15.746;2023-04-25T11:31:59;6.00;99.90
13482;DHT22;6813;60.352;15.746;2023-04-25T11:34:30;5.90;99.90
13482;DHT22;6813;60.352;15.746;2023-04-25T11:36:56;5.80;99.90
13482;DHT22;6813;60.352;15.746;2023-04-25T11:39:24;5.80;99.90
13482;DHT22;6813;60.352;15.746;2023-04-25T11:41:50;5.90;99.90
13482;DHT22;6813;60.352;15.746;2023-04-25T11:44:16;6.00;99.90
13482;DHT22;6813;60.352;15.746;2023-04-25T11:46:43;5.90;99.90
13482;DHT22;6813;60.352;15.746;2023-04-25T11:49:09;6.00;99.90
13482;DHT22;6813;60.352;15.746;2023-04-25T11:51:42;6.10;99.90
13482;DHT22;6813;60.352;15.746;2023-04-25T11:54:09;6.20;99.90
13482;DHT22;6813;60.352;15.746;2023-04-25T11:56:35;6.20;99.90
13482;DHT22;6813;60.352;15.746;2023-04-25T11:59:03;6.20;99.90
13482;DHT22;6813;60.352;15.746;2023-04-25T12:01:36;6.30;99.90
13482;DHT22;6813;60.352;15.746;2023-04-25T12:04:18;6.40;99.90
13482;DHT22;6813;60.352;15.746;2023-04-25T12:06:45;6.40;99.90
13482;DHT22;6813;60.352;15.746;2023-04-25T12:09:18;6.30;99.90
13482;DHT22;6813;60.352;15.746;2023-04-25T12:11:46;6.30;99.90
13482;DHT22;6813;60.352;15.746;2023-04-25T12:14:12;6.40;99.90
13482;DHT22;6813;60.352;15.746;2023-04-25T12:16:48;6.40;99.90
13482;DHT22;6813;60.352;15.746;2023-04-25T12:19:17;6.40;99.90
13482;DHT22;6813;60.352;15.746;2023-04-25T12:21:44;6.50;99.90
13482;DHT22;6813;60.352;15.746;2023-04-25T12:24:18;6.50;99.90
13482;DHT22;6813;60.352;15.746;2023-04-25T12:27:09;6.40;99.90
13482;DHT22;6813;60.352;15.746;2023-04-25T12:29:34;6.40;99.90
13482;DHT22;6813;60.352;15.746;2023-04-25T12:32:01;6.50;99.90
13482;DHT22;6813;60.352;15.746;2023-04-25T12:34:29;6.50;99.90
13482;DHT22;6813;60.352;15.746;2023-04-25T12:36:57;6.50;99.90
13482;DHT22;6813;60.352;15.746;2023-04-25T12:39:24;6.50;99.90
13482;DHT22;6813;60.352;15.746;2023-04-25T12:41:51;6.50;99.90
13482;DHT22;6813;60.352;15.746;2023-04-25T12:44:20;6.60;99.90
13482;DHT22;6813;60.352;15.746;2023-04-25T12:46:47;6.60;99.90
13482;DHT22;6813;60.352;15.746;2023-04-25T12:49:13;6.60;99.90
13482;DHT22;6813;60.352;15.746;2023-04-25T12:51:39;6.70;99.90
13482;DHT22;6813;60.352;15.746;2023-04-25T12:54:06;6.70;99.90
13482;DHT22;6813;60.352;15.746;2023-04-25T12:56:34;6.80;99.90
13482;DHT22;6813;60.352;15.746;2023-04-25T12:59:00;6.90;99.90
13482;DHT22;6813;60.352;15.746;2023-04-25T13:01:33;7.00;99.90
13482;DHT22;6813;60.352;15.746;2023-04-25T13:03:59;7.00;99.90
13482;DHT22;6813;60.352;15.746;2023-04-25T13:06:25;7.00;99.90
13482;DHT22;6813;60.352;15.746;2023-04-25T13:08:51;7.10;99.90
13482;DHT22;6813;60.352;15.746;2023-04-25T13:11:17;7.20;99.90
13482;DHT22;6813;60.352;15.746;2023-04-25T13:13:43;7.20;99.90
13482;DHT22;6813;60.352;15.746;2023-04-25T13:16:10;7.30;99.90
13482;DHT22;6813;60.352;15.746;2023-04-25T13:18:35;7.20;99.90
13482;DHT22;6813;60.352;15.746;2023-04-25T13:21:01;7.30;99.90
13482;DHT22;6813;60.352;15.746;2023-04-25T13:23:28;7.30;99.90
13482;DHT22;6813;60.352;15.746;2023-04-25T13:25:54;7.30;99.90
13482;DHT22;6813;60.352;15.746;2023-04-25T13:28:21;7.30;99.90
13482;DHT22;6813;60.352;15.746;2023-04-25T13:30:47;7.30;99.90
13482;DHT22;6813;60.352;15.746;2023-04-25T13:33:14;7.20;99.90
13482;DHT22;6813;60.352;15.746;2023-04-25T13:35:39;7.30;99.90
13482;DHT22;6813;60.352;15.746;2023-04-25T13:38:05;7.20;99.90
13482;DHT22;6813;60.352;15.746;2023-04-25T13:40:31;7.10;99.90
13482;DHT22;6813;60.352;15.746;2023-04-25T13:42:57;7.00;99.90
13482;DHT22;6813;60.352;15.746;2023-04-25T13:45:23;7.10;99.90
13482;DHT22;6813;60.352;15.746;2023-04-25T13:47:49;7.10;99.90
13482;DHT22;6813;60.352;15.746;2023-04-25T13:50:15;7.20;99.90
13482;DHT22;6813;60.352;15.746;2023-04-25T13:52:41;7.20;99.90
13482;DHT22;6813;60.352;15.746;2023-04-25T13:55:08;7.20;99.90
13482;DHT22;6813;60.352;15.746;2023-04-25T13:57:35;7.30;99.90
13482;DHT22;6813;60.352;15.746;2023-04-25T14:00:01;7.20;99.90
13482;DHT22;6813;60.352;15.746;2023-04-25T14:02:32;7.20;99.90
13482;DHT22;6813;60.352;15.746;2023-04-25T14:04:58;7.20;99.90
13482;DHT22;6813;60.352;15.746;2023-04-25T14:07:23;7.20;99.90
13482;DHT22;6813;60.352;15.746;2023-04-25T14:09:50;7.20;99.90
13482;DHT22;6813;60.352;15.746;2023-04-25T14:12:15;7.20;99.90
13482;DHT22;6813;60.352;15.746;2023-04-25T14:14:41;7.20;99.90
13482;DHT22;6813;60.352;15.746;2023-04-25T14:17:08;7.20;99.90
13482;DHT22;6813;60.352;15.746;2023-04-25T14:19:34;7.20;99.90
13482;DHT22;6813;60.352;15.746;2023-04-25T14:22:00;7.10;99.90
13482;DHT22;6813;60.352;15.746;2023-04-25T14:24:26;7.00;99.90
13482;DHT22;6813;60.352;15.746;2023-04-25T14:26:51;7.00;99.90
13482;DHT22;6813;60.352;15.746;2023-04-25T14:29:17;6.90;99.90
13482;DHT22;6813;60.352;15.746;2023-04-25T14:31:43;6.90;99.90
13482;DHT22;6813;60.352;15.746;2023-04-25T14:34:10;6.90;99.90
13482;DHT22;6813;60.352;15.746;2023-04-25T14:36:36;6.90;99.90
13482;DHT22;6813;60.352;15.746;2023-04-25T14:39:03;7.00;99.90
13482;DHT22;6813;60.352;15.746;2023-04-25T14:41:30;7.00;99.90
13482;DHT22;6813;60.352;15.746;2023-04-25T14:43:56;6.90;99.90
13482;DHT22;6813;60.352;15.746;2023-04-25T14:46:22;6.90;99.90
13482;DHT22;6813;60.352;15.746;2023-04-25T14:48:49;7.00;99.90
13482;DHT22;6813;60.352;15.746;2023-04-25T14:51:15;7.00;99.90
13482;DHT22;6813;60.352;15.746;2023-04-25T14:53:41;7.00;99.90
13482;DHT22;6813;60.352;15.746;2023-04-25T14:56:07;6.70;99.90
13482;DHT22;6813;60.352;15.746;2023-04-25T14:58:34;6.70;99.90
13482;DHT22;6813;60.352;15.746;2023-04-25T15:01:00;6.70;99.90
13482;DHT22;6813;60.352;15.746;2023-04-25T15:03:26;6.70;99.90
13482;DHT22;6813;60.352;15.746;2023-04-25T15:05:55;6.70;99.90
13482;DHT22;6813;60.352;15.746;2023-04-25T15:08:21;6.70;99.90
13482;DHT22;6813;60.352;15.746;2023-04-25T15:10:47;6.60;99.90
13482;DHT22;6813;60.352;15.746;2023-04-25T15:13:13;6.50;99.90
13482;DHT22;6813;60.352;15.746;2023-04-25T15:15:38;6.50;99.90
13482;DHT22;6813;60.352;15.746;2023-04-25T15:18:05;6.50;99.90
13482;DHT22;6813;60.352;15.746;2023-04-25T15:20:30;6.50;99.90
13482;DHT22;6813;60.352;15.746;2023-04-25T15:22:57;6.60;99.90
13482;DHT22;6813;60.352;15.746;2023-04-25T15:25:23;6.40;99.90
13482;DHT22;6813;60.352;15.746;2023-04-25T15:27:49;6.40;99.90
13482;DHT22;6813;60.352;15.746;2023-04-25T15:30:17;6.50;99.90
13482;DHT22;6813;60.352;15.746;2023-04-25T15:32:44;6.50;99.90
13482;DHT22;6813;60.352;15.746;2023-04-25T15:35:10;6.40;99.90
13482;DHT22;6813;60.352;15.746;2023-04-25T15:37:37;6.40;99.90
13482;DHT22;6813;60.352;15.746;2023-04-25T15:40:11;6.40;99.90
13482;DHT22;6813;60.352;15.746;2023-04-25T15:42:38;6.40;99.90
13482;DHT22;6813;60.352;15.746;2023-04-25T15:45:06;6.40;99.90
13482;DHT22;6813;60.352;15.746;2023-04-25T15:47:34;6.30;99.90
13482;DHT22;6813;60.352;15.746;2023-04-25T15:50:00;6.30;99.90